sensor_id;sensor_type;location;lat;lon;timestamp;P1;durP1;ratioP1;P2;durP2;ratioP2
80711;SDS011;70078;51.596;5.678;2023-09-30T00:00:55;9.95;;;3.55;;
80711;SDS011;70078;51.596;5.678;2023-09-30T00:03:21;11.85;;;4.22;;
80711;SDS011;70078;51.596;5.678;2023-09-30T00:05:46;10.93;;;4.38;;
80711;SDS011;70078;51.596;5.678;2023-09-30T00:08:12;11.18;;;5.28;;
80711;SDS011;70078;51.596;5.678;2023-09-30T00:10:37;8.45;;;4.28;;
80711;SDS011;70078;51.596;5.678;2023-09-30T00:13:02;10.93;;;4.30;;
80711;SDS011;70078;51.596;5.678;2023-09-30T00:15:28;10.95;;;4.38;;
80711;SDS011;70078;51.596;5.678;2023-09-30T00:17:53;9.85;;;4.90;;
80711;SDS011;70078;51.596;5.678;2023-09-30T00:20:19;13.50;;;5.65;;
80711;SDS011;70078;51.596;5.678;2023-09-30T00:22:44;11.55;;;4.72;;
80711;SDS011;70078;51.596;5.678;2023-09-30T00:25:10;10.75;;;4.93;;
80711;SDS011;70078;51.596;5.678;2023-09-30T00:27:35;14.15;;;5.30;;
80711;SDS011;70078;51.596;5.678;2023-09-30T00:30:01;14.02;;;4.53;;
80711;SDS011;70078;51.596;5.678;2023-09-30T00:32:29;12.93;;;6.00;;
80711;SDS011;70078;51.596;5.678;2023-09-30T00:34:54;11.77;;;4.72;;
80711;SDS011;70078;51.596;5.678;2023-09-30T00:37:19;8.70;;;4.65;;
80711;SDS011;70078;51.596;5.678;2023-09-30T00:39:45;10.95;;;5.50;;
80711;SDS011;70078;51.596;5.678;2023-09-30T00:42:11;11.23;;;5.35;;
80711;SDS011;70078;51.596;5.678;2023-09-30T00:44:36;11.82;;;5.13;;
80711;SDS011;70078;51.596;5.678;2023-09-30T00:47:01;12.65;;;5.55;;
80711;SDS011;70078;51.596;5.678;2023-09-30T00:49:27;11.57;;;5.15;;
80711;SDS011;70078;51.596;5.678;2023-09-30T00:51:54;10.25;;;4.82;;
80711;SDS011;70078;51.596;5.678;2023-09-30T00:54:20;13.40;;;5.80;;
80711;SDS011;70078;51.596;5.678;2023-09-30T00:56:48;14.32;;;5.07;;
80711;SDS011;70078;51.596;5.678;2023-09-30T00:59:15;11.57;;;5.22;;
80711;SDS011;70078;51.596;5.678;2023-09-30T01:01:42;12.45;;;5.28;;
80711;SDS011;70078;51.596;5.678;2023-09-30T01:04:09;8.77;;;4.85;;
80711;SDS011;70078;51.596;5.678;2023-09-30T01:06:35;8.65;;;4.47;;
80711;SDS011;70078;51.596;5.678;2023-09-30T01:09:01;9.60;;;4.97;;
80711;SDS011;70078;51.596;5.678;2023-09-30T01:11:26;9.40;;;4.97;;
80711;SDS011;70078;51.596;5.678;2023-09-30T01:13:52;10.63;;;5.18;;
80711;SDS011;70078;51.596;5.678;2023-09-30T01:16:17;12.98;;;5.55;;
80711;SDS011;70078;51.596;5.678;2023-09-30T01:18:42;9.65;;;4.80;;
80711;SDS011;70078;51.596;5.678;2023-09-30T01:21:08;9.57;;;4.82;;
80711;SDS011;70078;51.596;5.678;2023-09-30T01:23:34;10.85;;;5.25;;
80711;SDS011;70078;51.596;5.678;2023-09-30T01:26:10;9.35;;;4.90;;
80711;SDS011;70078;51.596;5.678;2023-09-30T01:28:37;11.30;;;5.32;;
80711;SDS011;70078;51.596;5.678;2023-09-30T01:31:03;10.55;;;5.57;;
80711;SDS011;70078;51.596;5.678;2023-09-30T01:33:29;9.75;;;5.68;;
80711;SDS011;70078;51.596;5.678;2023-09-30T01:35:55;11.57;;;5.45;;
80711;SDS011;70078;51.596;5.678;2023-09-30T01:38:20;10.82;;;6.05;;
80711;SDS011;70078;51.596;5.678;2023-09-30T01:40:46;12.15;;;5.63;;
80711;SDS011;70078;51.596;5.678;2023-09-30T01:43:12;11.82;;;5.97;;
80711;SDS011;70078;51.596;5.678;2023-09-30T01:45:41;9.63;;;5.22;;
80711;SDS011;70078;51.596;5.678;2023-09-30T01:48:07;10.45;;;4.95;;
80711;SDS011;70078;51.596;5.678;2023-09-30T01:50:35;12.10;;;6.20;;
80711;SDS011;70078;51.596;5.678;2023-09-30T01:53:01;9.55;;;5.00;;
80711;SDS011;70078;51.596;5.678;2023-09-30T01:55:26;12.15;;;5.13;;
80711;SDS011;70078;51.596;5.678;2023-09-30T01:57:52;10.60;;;4.82;;
80711;SDS011;70078;51.596;5.678;2023-09-30T02:00:17;10.30;;;4.63;;
80711;SDS011;70078;51.596;5.678;2023-09-30T02:02:42;10.00;;;4.93;;
80711;SDS011;70078;51.596;5.678;2023-09-30T02:05:09;12.27;;;5.55;;
80711;SDS011;70078;51.596;5.678;2023-09-30T02:07:34;7.72;;;4.65;;
80711;SDS011;70078;51.596;5.678;2023-09-30T02:10:00;15.45;;;5.68;;
80711;SDS011;70078;51.596;5.678;2023-09-30T02:12:26;10.50;;;5.70;;
80711;SDS011;70078;51.596;5.678;2023-09-30T02:14:53;10.05;;;4.68;;
80711;SDS011;70078;51.596;5.678;2023-09-30T02:17:18;11.50;;;6.15;;
80711;SDS011;70078;51.596;5.678;2023-09-30T02:19:44;10.18;;;5.22;;
80711;SDS011;70078;51.596;5.678;2023-09-30T02:22:10;8.93;;;4.90;;
80711;SDS011;70078;51.596;5.678;2023-09-30T02:24:35;13.25;;;6.45;;
80711;SDS011;70078;51.596;5.678;2023-09-30T02:27:00;12.40;;;6.43;;
80711;SDS011;70078;51.596;5.678;2023-09-30T02:29:26;13.77;;;6.78;;
80711;SDS011;70078;51.596;5.678;2023-09-30T02:31:51;14.07;;;7.05;;
80711;SDS011;70078;51.596;5.678;2023-09-30T02:36:42;12.13;;;6.45;;
80711;SDS011;70078;51.596;5.678;2023-09-30T02:39:07;10.80;;;6.05;;
80711;SDS011;70078;51.596;5.678;2023-09-30T02:41:36;15.50;;;5.97;;
80711;SDS011;70078;51.596;5.678;2023-09-30T02:44:02;11.95;;;6.45;;
80711;SDS011;70078;51.596;5.678;2023-09-30T02:46:28;12.98;;;5.95;;
80711;SDS011;70078;51.596;5.678;2023-09-30T02:51:19;10.48;;;5.00;;
80711;SDS011;70078;51.596;5.678;2023-09-30T02:53:44;11.50;;;5.15;;
80711;SDS011;70078;51.596;5.678;2023-09-30T02:56:09;12.60;;;6.38;;
80711;SDS011;70078;51.596;5.678;2023-09-30T02:58:35;7.63;;;4.82;;
80711;SDS011;70078;51.596;5.678;2023-09-30T03:01:01;11.13;;;6.03;;
80711;SDS011;70078;51.596;5.678;2023-09-30T03:03:26;11.70;;;6.07;;
80711;SDS011;70078;51.596;5.678;2023-09-30T03:05:52;8.90;;;5.30;;
80711;SDS011;70078;51.596;5.678;2023-09-30T03:08:19;9.00;;;5.18;;
80711;SDS011;70078;51.596;5.678;2023-09-30T03:10:44;13.15;;;5.65;;
80711;SDS011;70078;51.596;5.678;2023-09-30T03:13:11;10.93;;;5.65;;
80711;SDS011;70078;51.596;5.678;2023-09-30T03:15:37;7.80;;;5.40;;
80711;SDS011;70078;51.596;5.678;2023-09-30T03:18:03;11.07;;;5.22;;
80711;SDS011;70078;51.596;5.678;2023-09-30T03:22:56;10.60;;;5.47;;
80711;SDS011;70078;51.596;5.678;2023-09-30T03:25:21;9.57;;;5.32;;
80711;SDS011;70078;51.596;5.678;2023-09-30T03:27:47;11.40;;;6.05;;
80711;SDS011;70078;51.596;5.678;2023-09-30T03:30:16;11.93;;;6.03;;
80711;SDS011;70078;51.596;5.678;2023-09-30T03:32:44;11.05;;;5.90;;
80711;SDS011;70078;51.596;5.678;2023-09-30T03:35:10;13.13;;;6.25;;
80711;SDS011;70078;51.596;5.678;2023-09-30T03:37:40;12.30;;;6.13;;
80711;SDS011;70078;51.596;5.678;2023-09-30T03:40:06;9.50;;;6.03;;
80711;SDS011;70078;51.596;5.678;2023-09-30T03:42:38;10.60;;;5.25;;
80711;SDS011;70078;51.596;5.678;2023-09-30T03:45:04;8.90;;;5.40;;
80711;SDS011;70078;51.596;5.678;2023-09-30T03:47:32;11.45;;;5.65;;
80711;SDS011;70078;51.596;5.678;2023-09-30T03:49:59;11.90;;;6.55;;
80711;SDS011;70078;51.596;5.678;2023-09-30T03:52:24;10.60;;;5.95;;
80711;SDS011;70078;51.596;5.678;2023-09-30T03:54:51;11.63;;;5.63;;
80711;SDS011;70078;51.596;5.678;2023-09-30T03:57:16;11.18;;;5.57;;
80711;SDS011;70078;51.596;5.678;2023-09-30T03:59:42;10.32;;;5.93;;
80711;SDS011;70078;51.596;5.678;2023-09-30T04:02:07;13.23;;;6.40;;
80711;SDS011;70078;51.596;5.678;2023-09-30T04:06:59;10.32;;;6.10;;
80711;SDS011;70078;51.596;5.678;2023-09-30T04:09:24;14.70;;;6.25;;
80711;SDS011;70078;51.596;5.678;2023-09-30T04:11:50;14.95;;;6.60;;
80711;SDS011;70078;51.596;5.678;2023-09-30T04:14:16;9.65;;;6.15;;
80711;SDS011;70078;51.596;5.678;2023-09-30T04:16:42;13.02;;;6.10;;
80711;SDS011;70078;51.596;5.678;2023-09-30T04:21:35;12.90;;;6.30;;
80711;SDS011;70078;51.596;5.678;2023-09-30T04:24:00;13.95;;;6.82;;
80711;SDS011;70078;51.596;5.678;2023-09-30T04:26:26;14.82;;;7.47;;
80711;SDS011;70078;51.596;5.678;2023-09-30T04:28:52;12.63;;;7.82;;
80711;SDS011;70078;51.596;5.678;2023-09-30T04:31:18;11.90;;;7.68;;
80711;SDS011;70078;51.596;5.678;2023-09-30T04:33:44;11.35;;;6.43;;
80711;SDS011;70078;51.596;5.678;2023-09-30T04:36:10;12.77;;;6.65;;
80711;SDS011;70078;51.596;5.678;2023-09-30T04:38:36;11.70;;;6.60;;
80711;SDS011;70078;51.596;5.678;2023-09-30T04:41:04;11.43;;;6.22;;
80711;SDS011;70078;51.596;5.678;2023-09-30T04:43:32;14.32;;;7.45;;
80711;SDS011;70078;51.596;5.678;2023-09-30T04:45:58;15.10;;;8.32;;
80711;SDS011;70078;51.596;5.678;2023-09-30T04:48:23;13.75;;;7.60;;
80711;SDS011;70078;51.596;5.678;2023-09-30T04:53:14;13.13;;;7.10;;
80711;SDS011;70078;51.596;5.678;2023-09-30T04:55:42;13.35;;;7.90;;
80711;SDS011;70078;51.596;5.678;2023-09-30T04:58:08;16.42;;;8.20;;
80711;SDS011;70078;51.596;5.678;2023-09-30T05:00:33;18.17;;;8.30;;
80711;SDS011;70078;51.596;5.678;2023-09-30T05:03:00;12.90;;;7.65;;
80711;SDS011;70078;51.596;5.678;2023-09-30T05:07:51;12.90;;;7.03;;
80711;SDS011;70078;51.596;5.678;2023-09-30T05:10:16;13.20;;;7.20;;
80711;SDS011;70078;51.596;5.678;2023-09-30T05:12:42;14.35;;;7.93;;
80711;SDS011;70078;51.596;5.678;2023-09-30T05:15:10;15.48;;;8.18;;
80711;SDS011;70078;51.596;5.678;2023-09-30T05:17:41;13.73;;;7.65;;
80711;SDS011;70078;51.596;5.678;2023-09-30T05:20:10;13.10;;;7.13;;
80711;SDS011;70078;51.596;5.678;2023-09-30T05:22:37;16.08;;;7.32;;
80711;SDS011;70078;51.596;5.678;2023-09-30T05:25:04;13.52;;;7.70;;
80711;SDS011;70078;51.596;5.678;2023-09-30T05:27:29;16.55;;;8.18;;
80711;SDS011;70078;51.596;5.678;2023-09-30T05:29:55;16.67;;;8.13;;
80711;SDS011;70078;51.596;5.678;2023-09-30T05:34:47;11.27;;;7.15;;
80711;SDS011;70078;51.596;5.678;2023-09-30T05:37:13;14.18;;;7.18;;
80711;SDS011;70078;51.596;5.678;2023-09-30T05:39:38;13.02;;;6.65;;
80711;SDS011;70078;51.596;5.678;2023-09-30T05:42:04;12.88;;;7.45;;
80711;SDS011;70078;51.596;5.678;2023-09-30T05:44:30;16.70;;;8.27;;
80711;SDS011;70078;51.596;5.678;2023-09-30T05:46:56;16.58;;;7.95;;
80711;SDS011;70078;51.596;5.678;2023-09-30T05:51:47;10.30;;;6.70;;
80711;SDS011;70078;51.596;5.678;2023-09-30T05:54:12;11.15;;;6.65;;
80711;SDS011;70078;51.596;5.678;2023-09-30T05:56:38;12.65;;;6.90;;
80711;SDS011;70078;51.596;5.678;2023-09-30T05:59:04;12.90;;;7.13;;
80711;SDS011;70078;51.596;5.678;2023-09-30T06:01:30;14.05;;;6.85;;
80711;SDS011;70078;51.596;5.678;2023-09-30T06:03:57;13.90;;;7.13;;
80711;SDS011;70078;51.596;5.678;2023-09-30T06:08:49;11.93;;;6.30;;
80711;SDS011;70078;51.596;5.678;2023-09-30T06:13:50;13.52;;;6.40;;
80711;SDS011;70078;51.596;5.678;2023-09-30T06:16:17;12.30;;;6.72;;
80711;SDS011;70078;51.596;5.678;2023-09-30T06:21:10;11.05;;;6.45;;
80711;SDS011;70078;51.596;5.678;2023-09-30T06:23:35;15.20;;;7.07;;
80711;SDS011;70078;51.596;5.678;2023-09-30T06:26:00;10.75;;;6.85;;
80711;SDS011;70078;51.596;5.678;2023-09-30T06:28:27;12.82;;;6.90;;
80711;SDS011;70078;51.596;5.678;2023-09-30T06:30:57;13.05;;;6.97;;
80711;SDS011;70078;51.596;5.678;2023-09-30T06:33:22;14.95;;;7.78;;
80711;SDS011;70078;51.596;5.678;2023-09-30T06:35:48;16.25;;;7.95;;
80711;SDS011;70078;51.596;5.678;2023-09-30T06:38:19;14.35;;;7.85;;
80711;SDS011;70078;51.596;5.678;2023-09-30T06:40:45;16.00;;;8.75;;
80711;SDS011;70078;51.596;5.678;2023-09-30T06:43:12;15.30;;;7.82;;
80711;SDS011;70078;51.596;5.678;2023-09-30T06:45:40;16.13;;;8.90;;
80711;SDS011;70078;51.596;5.678;2023-09-30T06:48:07;18.38;;;8.35;;
80711;SDS011;70078;51.596;5.678;2023-09-30T06:50:37;19.15;;;8.48;;
80711;SDS011;70078;51.596;5.678;2023-09-30T06:53:04;14.82;;;7.97;;
80711;SDS011;70078;51.596;5.678;2023-09-30T06:55:30;16.40;;;8.98;;
80711;SDS011;70078;51.596;5.678;2023-09-30T06:57:57;17.55;;;8.68;;
80711;SDS011;70078;51.596;5.678;2023-09-30T07:00:22;17.48;;;9.15;;
80711;SDS011;70078;51.596;5.678;2023-09-30T07:02:47;18.65;;;8.40;;
80711;SDS011;70078;51.596;5.678;2023-09-30T07:05:13;15.13;;;8.68;;
80711;SDS011;70078;51.596;5.678;2023-09-30T07:07:40;22.10;;;9.25;;
80711;SDS011;70078;51.596;5.678;2023-09-30T07:10:08;18.30;;;8.45;;
80711;SDS011;70078;51.596;5.678;2023-09-30T07:12:34;17.08;;;8.93;;
80711;SDS011;70078;51.596;5.678;2023-09-30T07:15:01;17.52;;;8.90;;
80711;SDS011;70078;51.596;5.678;2023-09-30T07:17:28;17.35;;;8.57;;
80711;SDS011;70078;51.596;5.678;2023-09-30T07:19:53;17.92;;;9.05;;
80711;SDS011;70078;51.596;5.678;2023-09-30T07:22:18;15.55;;;8.10;;
80711;SDS011;70078;51.596;5.678;2023-09-30T07:24:44;20.33;;;9.98;;
80711;SDS011;70078;51.596;5.678;2023-09-30T07:27:09;19.52;;;9.32;;
80711;SDS011;70078;51.596;5.678;2023-09-30T07:29:35;18.17;;;9.55;;
80711;SDS011;70078;51.596;5.678;2023-09-30T07:32:00;16.90;;;9.23;;
80711;SDS011;70078;51.596;5.678;2023-09-30T07:34:26;20.92;;;9.27;;
80711;SDS011;70078;51.596;5.678;2023-09-30T07:36:51;19.70;;;9.63;;
80711;SDS011;70078;51.596;5.678;2023-09-30T07:39:17;19.30;;;9.27;;
80711;SDS011;70078;51.596;5.678;2023-09-30T07:41:42;21.55;;;9.52;;
80711;SDS011;70078;51.596;5.678;2023-09-30T07:44:07;20.42;;;9.73;;
80711;SDS011;70078;51.596;5.678;2023-09-30T07:46:34;21.83;;;9.40;;
80711;SDS011;70078;51.596;5.678;2023-09-30T07:49:00;17.25;;;8.90;;
80711;SDS011;70078;51.596;5.678;2023-09-30T07:51:25;18.77;;;10.43;;
80711;SDS011;70078;51.596;5.678;2023-09-30T07:53:51;18.45;;;9.43;;
80711;SDS011;70078;51.596;5.678;2023-09-30T07:56:17;18.00;;;8.95;;
80711;SDS011;70078;51.596;5.678;2023-09-30T07:58:42;15.10;;;7.93;;
80711;SDS011;70078;51.596;5.678;2023-09-30T08:01:07;15.93;;;7.70;;
80711;SDS011;70078;51.596;5.678;2023-09-30T08:03:33;16.27;;;8.32;;
80711;SDS011;70078;51.596;5.678;2023-09-30T08:05:59;17.05;;;8.45;;
80711;SDS011;70078;51.596;5.678;2023-09-30T08:08:25;17.45;;;9.10;;
80711;SDS011;70078;51.596;5.678;2023-09-30T08:10:50;17.80;;;8.88;;
80711;SDS011;70078;51.596;5.678;2023-09-30T08:13:20;16.02;;;8.95;;
80711;SDS011;70078;51.596;5.678;2023-09-30T08:15:45;17.02;;;8.80;;
80711;SDS011;70078;51.596;5.678;2023-09-30T08:18:11;17.85;;;8.57;;
80711;SDS011;70078;51.596;5.678;2023-09-30T08:20:36;17.95;;;9.00;;
80711;SDS011;70078;51.596;5.678;2023-09-30T08:23:01;20.70;;;9.40;;
80711;SDS011;70078;51.596;5.678;2023-09-30T08:25:28;15.95;;;8.05;;
80711;SDS011;70078;51.596;5.678;2023-09-30T08:27:53;16.40;;;8.02;;
80711;SDS011;70078;51.596;5.678;2023-09-30T08:30:19;17.52;;;7.72;;
80711;SDS011;70078;51.596;5.678;2023-09-30T08:32:45;17.55;;;7.88;;
80711;SDS011;70078;51.596;5.678;2023-09-30T08:35:11;15.88;;;7.70;;
80711;SDS011;70078;51.596;5.678;2023-09-30T08:37:39;17.33;;;7.90;;
80711;SDS011;70078;51.596;5.678;2023-09-30T08:40:05;13.68;;;7.68;;
80711;SDS011;70078;51.596;5.678;2023-09-30T08:42:31;18.83;;;8.23;;
80711;SDS011;70078;51.596;5.678;2023-09-30T08:44:58;19.92;;;7.80;;
80711;SDS011;70078;51.596;5.678;2023-09-30T08:47:26;14.57;;;7.00;;
80711;SDS011;70078;51.596;5.678;2023-09-30T08:49:53;15.68;;;6.28;;
80711;SDS011;70078;51.596;5.678;2023-09-30T08:52:22;13.63;;;6.10;;
80711;SDS011;70078;51.596;5.678;2023-09-30T08:54:48;12.98;;;6.30;;
80711;SDS011;70078;51.596;5.678;2023-09-30T08:57:13;16.73;;;6.90;;
80711;SDS011;70078;51.596;5.678;2023-09-30T08:59:43;16.33;;;6.90;;
80711;SDS011;70078;51.596;5.678;2023-09-30T09:02:09;15.40;;;7.03;;
80711;SDS011;70078;51.596;5.678;2023-09-30T09:04:35;10.60;;;7.38;;
80711;SDS011;70078;51.596;5.678;2023-09-30T09:07:02;16.23;;;6.80;;
80711;SDS011;70078;51.596;5.678;2023-09-30T09:09:28;13.98;;;6.55;;
80711;SDS011;70078;51.596;5.678;2023-09-30T09:11:53;12.90;;;6.40;;
80711;SDS011;70078;51.596;5.678;2023-09-30T09:14:18;20.23;;;7.10;;
80711;SDS011;70078;51.596;5.678;2023-09-30T09:16:56;14.95;;;8.07;;
80711;SDS011;70078;51.596;5.678;2023-09-30T09:19:22;14.75;;;7.30;;
80711;SDS011;70078;51.596;5.678;2023-09-30T09:21:58;13.88;;;6.88;;
80711;SDS011;70078;51.596;5.678;2023-09-30T09:24:34;12.88;;;7.10;;
80711;SDS011;70078;51.596;5.678;2023-09-30T09:27:12;14.02;;;7.45;;
80711;SDS011;70078;51.596;5.678;2023-09-30T09:29:42;12.43;;;6.80;;
80711;SDS011;70078;51.596;5.678;2023-09-30T09:32:10;10.88;;;6.32;;
80711;SDS011;70078;51.596;5.678;2023-09-30T09:34:40;13.30;;;6.47;;
80711;SDS011;70078;51.596;5.678;2023-09-30T09:37:18;14.27;;;6.30;;
80711;SDS011;70078;51.596;5.678;2023-09-30T09:39:53;9.05;;;5.10;;
80711;SDS011;70078;51.596;5.678;2023-09-30T09:42:25;11.60;;;5.70;;
80711;SDS011;70078;51.596;5.678;2023-09-30T09:44:56;10.50;;;5.88;;
80711;SDS011;70078;51.596;5.678;2023-09-30T09:47:24;7.88;;;5.00;;
80711;SDS011;70078;51.596;5.678;2023-09-30T09:49:50;11.68;;;5.80;;
80711;SDS011;70078;51.596;5.678;2023-09-30T09:52:17;12.13;;;5.40;;
80711;SDS011;70078;51.596;5.678;2023-09-30T09:54:44;9.13;;;5.57;;
80711;SDS011;70078;51.596;5.678;2023-09-30T09:57:10;10.30;;;5.63;;
80711;SDS011;70078;51.596;5.678;2023-09-30T09:59:36;11.20;;;5.30;;
80711;SDS011;70078;51.596;5.678;2023-09-30T10:02:04;11.23;;;4.93;;
80711;SDS011;70078;51.596;5.678;2023-09-30T10:04:37;11.15;;;4.30;;
80711;SDS011;70078;51.596;5.678;2023-09-30T10:07:02;7.68;;;4.38;;
80711;SDS011;70078;51.596;5.678;2023-09-30T10:09:31;7.50;;;3.78;;
80711;SDS011;70078;51.596;5.678;2023-09-30T10:12:00;7.38;;;3.22;;
80711;SDS011;70078;51.596;5.678;2023-09-30T10:14:30;6.68;;;3.28;;
80711;SDS011;70078;51.596;5.678;2023-09-30T10:16:57;8.30;;;4.30;;
80711;SDS011;70078;51.596;5.678;2023-09-30T10:19:23;10.48;;;3.63;;
80711;SDS011;70078;51.596;5.678;2023-09-30T10:24:46;9.75;;;3.67;;
80711;SDS011;70078;51.596;5.678;2023-09-30T10:29:48;10.05;;;4.13;;
80711;SDS011;70078;51.596;5.678;2023-09-30T10:34:49;9.07;;;3.50;;
80711;SDS011;70078;51.596;5.678;2023-09-30T10:37:21;10.45;;;4.25;;
80711;SDS011;70078;51.596;5.678;2023-09-30T10:39:57;8.60;;;3.60;;
80711;SDS011;70078;51.596;5.678;2023-09-30T10:50:57;8.90;;;3.88;;
80711;SDS011;70078;51.596;5.678;2023-09-30T10:53:29;8.70;;;3.97;;
80711;SDS011;70078;51.596;5.678;2023-09-30T10:55:56;8.27;;;3.75;;
80711;SDS011;70078;51.596;5.678;2023-09-30T10:58:41;8.30;;;3.85;;
80711;SDS011;70078;51.596;5.678;2023-09-30T11:01:08;9.75;;;3.70;;
80711;SDS011;70078;51.596;5.678;2023-09-30T11:03:35;9.32;;;4.10;;
80711;SDS011;70078;51.596;5.678;2023-09-30T11:06:01;9.00;;;3.88;;
80711;SDS011;70078;51.596;5.678;2023-09-30T11:08:28;12.75;;;4.88;;
80711;SDS011;70078;51.596;5.678;2023-09-30T11:10:57;9.32;;;4.43;;
80711;SDS011;70078;51.596;5.678;2023-09-30T11:13:25;11.02;;;3.92;;
80711;SDS011;70078;51.596;5.678;2023-09-30T11:16:00;6.63;;;3.17;;
80711;SDS011;70078;51.596;5.678;2023-09-30T11:18:27;9.35;;;3.83;;
80711;SDS011;70078;51.596;5.678;2023-09-30T11:20:53;9.30;;;3.70;;
80711;SDS011;70078;51.596;5.678;2023-09-30T11:23:32;9.88;;;3.65;;
80711;SDS011;70078;51.596;5.678;2023-09-30T11:25:58;6.97;;;4.30;;
80711;SDS011;70078;51.596;5.678;2023-09-30T11:28:23;7.47;;;3.42;;
80711;SDS011;70078;51.596;5.678;2023-09-30T11:33:19;6.68;;;3.38;;
80711;SDS011;70078;51.596;5.678;2023-09-30T11:35:57;7.47;;;3.40;;
80711;SDS011;70078;51.596;5.678;2023-09-30T11:38:25;9.23;;;3.70;;
80711;SDS011;70078;51.596;5.678;2023-09-30T11:40:59;7.63;;;3.28;;
80711;SDS011;70078;51.596;5.678;2023-09-30T11:43:27;7.32;;;3.42;;
80711;SDS011;70078;51.596;5.678;2023-09-30T11:46:03;7.97;;;4.38;;
80711;SDS011;70078;51.596;5.678;2023-09-30T11:48:34;7.93;;;3.47;;
80711;SDS011;70078;51.596;5.678;2023-09-30T11:51:03;6.57;;;3.35;;
80711;SDS011;70078;51.596;5.678;2023-09-30T11:53:32;7.10;;;3.17;;
80711;SDS011;70078;51.596;5.678;2023-09-30T11:56:00;7.25;;;3.75;;
80711;SDS011;70078;51.596;5.678;2023-09-30T11:58:30;8.13;;;3.83;;
80711;SDS011;70078;51.596;5.678;2023-09-30T12:01:00;8.43;;;3.10;;
80711;SDS011;70078;51.596;5.678;2023-09-30T12:03:26;8.88;;;3.45;;
80711;SDS011;70078;51.596;5.678;2023-09-30T12:05:52;9.35;;;3.65;;
80711;SDS011;70078;51.596;5.678;2023-09-30T12:08:20;6.45;;;3.30;;
80711;SDS011;70078;51.596;5.678;2023-09-30T12:10:47;5.43;;;2.67;;
80711;SDS011;70078;51.596;5.678;2023-09-30T12:13:12;19.63;;;3.95;;
80711;SDS011;70078;51.596;5.678;2023-09-30T12:15:37;7.38;;;3.65;;
80711;SDS011;70078;51.596;5.678;2023-09-30T12:18:03;7.22;;;3.03;;
80711;SDS011;70078;51.596;5.678;2023-09-30T12:20:28;8.75;;;3.47;;
80711;SDS011;70078;51.596;5.678;2023-09-30T12:22:54;9.00;;;3.45;;
80711;SDS011;70078;51.596;5.678;2023-09-30T12:25:19;7.82;;;3.45;;
80711;SDS011;70078;51.596;5.678;2023-09-30T12:27:46;10.23;;;3.90;;
80711;SDS011;70078;51.596;5.678;2023-09-30T12:30:12;8.75;;;3.35;;
80711;SDS011;70078;51.596;5.678;2023-09-30T12:32:38;8.13;;;2.95;;
80711;SDS011;70078;51.596;5.678;2023-09-30T12:35:04;8.02;;;2.95;;
80711;SDS011;70078;51.596;5.678;2023-09-30T12:37:30;5.88;;;2.60;;
80711;SDS011;70078;51.596;5.678;2023-09-30T12:39:55;8.50;;;2.50;;
80711;SDS011;70078;51.596;5.678;2023-09-30T12:42:20;8.43;;;2.53;;
80711;SDS011;70078;51.596;5.678;2023-09-30T12:44:46;7.30;;;3.33;;
80711;SDS011;70078;51.596;5.678;2023-09-30T12:47:11;6.47;;;3.05;;
80711;SDS011;70078;51.596;5.678;2023-09-30T12:49:37;8.95;;;3.72;;
80711;SDS011;70078;51.596;5.678;2023-09-30T12:52:03;8.02;;;3.15;;
80711;SDS011;70078;51.596;5.678;2023-09-30T12:54:28;8.30;;;3.00;;
80711;SDS011;70078;51.596;5.678;2023-09-30T12:56:54;9.40;;;3.20;;
80711;SDS011;70078;51.596;5.678;2023-09-30T12:59:19;6.68;;;2.75;;
80711;SDS011;70078;51.596;5.678;2023-09-30T13:01:49;6.78;;;2.65;;
80711;SDS011;70078;51.596;5.678;2023-09-30T13:04:14;8.43;;;2.83;;
80711;SDS011;70078;51.596;5.678;2023-09-30T13:06:40;6.55;;;2.53;;
80711;SDS011;70078;51.596;5.678;2023-09-30T13:09:06;7.97;;;2.60;;
80711;SDS011;70078;51.596;5.678;2023-09-30T13:11:33;7.63;;;3.25;;
80711;SDS011;70078;51.596;5.678;2023-09-30T13:13:59;7.90;;;3.10;;
80711;SDS011;70078;51.596;5.678;2023-09-30T13:16:24;7.05;;;2.97;;
80711;SDS011;70078;51.596;5.678;2023-09-30T13:18:49;7.03;;;3.10;;
80711;SDS011;70078;51.596;5.678;2023-09-30T13:21:17;7.20;;;2.42;;
80711;SDS011;70078;51.596;5.678;2023-09-30T13:23:42;7.40;;;3.47;;
80711;SDS011;70078;51.596;5.678;2023-09-30T13:26:10;7.18;;;3.20;;
80711;SDS011;70078;51.596;5.678;2023-09-30T13:28:35;6.60;;;3.55;;
80711;SDS011;70078;51.596;5.678;2023-09-30T13:31:01;6.88;;;2.97;;
80711;SDS011;70078;51.596;5.678;2023-09-30T13:33:26;8.10;;;2.80;;
80711;SDS011;70078;51.596;5.678;2023-09-30T13:35:51;6.95;;;2.55;;
80711;SDS011;70078;51.596;5.678;2023-09-30T13:38:17;6.53;;;2.92;;
80711;SDS011;70078;51.596;5.678;2023-09-30T13:40:42;7.05;;;2.53;;
80711;SDS011;70078;51.596;5.678;2023-09-30T13:43:07;6.55;;;2.60;;
80711;SDS011;70078;51.596;5.678;2023-09-30T13:45:33;7.93;;;3.00;;
80711;SDS011;70078;51.596;5.678;2023-09-30T13:47:59;6.43;;;2.50;;
80711;SDS011;70078;51.596;5.678;2023-09-30T13:50:25;6.75;;;2.78;;
80711;SDS011;70078;51.596;5.678;2023-09-30T13:52:50;7.32;;;2.85;;
80711;SDS011;70078;51.596;5.678;2023-09-30T13:55:15;6.97;;;3.20;;
80711;SDS011;70078;51.596;5.678;2023-09-30T13:57:44;6.82;;;2.95;;
80711;SDS011;70078;51.596;5.678;2023-09-30T14:00:11;7.68;;;3.35;;
80711;SDS011;70078;51.596;5.678;2023-09-30T14:02:37;8.18;;;2.97;;
80711;SDS011;70078;51.596;5.678;2023-09-30T14:05:03;7.50;;;2.58;;
80711;SDS011;70078;51.596;5.678;2023-09-30T14:07:29;7.25;;;3.15;;
80711;SDS011;70078;51.596;5.678;2023-09-30T14:09:55;7.22;;;2.70;;
80711;SDS011;70078;51.596;5.678;2023-09-30T14:12:20;6.38;;;3.03;;
80711;SDS011;70078;51.596;5.678;2023-09-30T14:14:45;5.45;;;2.60;;
80711;SDS011;70078;51.596;5.678;2023-09-30T14:17:11;7.95;;;2.83;;
80711;SDS011;70078;51.596;5.678;2023-09-30T14:19:37;8.35;;;3.15;;
80711;SDS011;70078;51.596;5.678;2023-09-30T14:22:03;7.75;;;2.78;;
80711;SDS011;70078;51.596;5.678;2023-09-30T14:24:30;5.47;;;2.28;;
80711;SDS011;70078;51.596;5.678;2023-09-30T14:26:57;7.10;;;3.05;;
80711;SDS011;70078;51.596;5.678;2023-09-30T14:29:22;7.88;;;3.00;;
80711;SDS011;70078;51.596;5.678;2023-09-30T14:31:47;7.25;;;2.60;;
80711;SDS011;70078;51.596;5.678;2023-09-30T14:34:13;6.72;;;2.92;;
80711;SDS011;70078;51.596;5.678;2023-09-30T14:36:40;7.22;;;3.30;;
80711;SDS011;70078;51.596;5.678;2023-09-30T14:39:05;4.93;;;2.75;;
80711;SDS011;70078;51.596;5.678;2023-09-30T14:41:31;6.68;;;3.05;;
80711;SDS011;70078;51.596;5.678;2023-09-30T14:43:57;5.72;;;3.13;;
80711;SDS011;70078;51.596;5.678;2023-09-30T14:46:23;6.88;;;2.88;;
80711;SDS011;70078;51.596;5.678;2023-09-30T14:48:48;8.95;;;3.13;;
80711;SDS011;70078;51.596;5.678;2023-09-30T14:51:14;6.35;;;2.33;;
80711;SDS011;70078;51.596;5.678;2023-09-30T14:53:40;5.55;;;2.70;;
80711;SDS011;70078;51.596;5.678;2023-09-30T14:56:14;7.10;;;3.42;;
80711;SDS011;70078;51.596;5.678;2023-09-30T14:58:43;7.47;;;2.83;;
80711;SDS011;70078;51.596;5.678;2023-09-30T15:01:09;7.20;;;3.45;;
80711;SDS011;70078;51.596;5.678;2023-09-30T15:03:35;6.28;;;2.97;;
80711;SDS011;70078;51.596;5.678;2023-09-30T15:06:02;7.45;;;3.58;;
80711;SDS011;70078;51.596;5.678;2023-09-30T15:08:29;7.10;;;3.13;;
80711;SDS011;70078;51.596;5.678;2023-09-30T15:10:55;6.65;;;3.17;;
80711;SDS011;70078;51.596;5.678;2023-09-30T15:13:20;7.60;;;3.03;;
80711;SDS011;70078;51.596;5.678;2023-09-30T15:15:46;7.10;;;3.13;;
80711;SDS011;70078;51.596;5.678;2023-09-30T15:18:11;7.00;;;3.40;;
80711;SDS011;70078;51.596;5.678;2023-09-30T15:20:39;5.90;;;3.35;;
80711;SDS011;70078;51.596;5.678;2023-09-30T15:23:08;9.10;;;3.22;;
80711;SDS011;70078;51.596;5.678;2023-09-30T15:25:38;6.80;;;2.97;;